createdAt,value
2018-03-25T00:01:04.410Z,-1.20
2018-03-25T00:03:30.829Z,-1.20
2018-03-25T00:05:57.248Z,-1.20
2018-03-25T00:08:23.827Z,-1.20
2018-03-25T00:10:52.102Z,-1.20
2018-03-25T00:13:18.613Z,-1.20
2018-03-25T00:15:45.068Z,-1.20
2018-03-25T00:18:11.485Z,-1.20
2018-03-25T00:20:37.987Z,-1.20
2018-03-25T00:23:04.435Z,-1.20
2018-03-25T00:25:30.913Z,-1.20
2018-03-25T00:28:15.992Z,-1.30
2018-03-25T00:30:43.164Z,-1.30
2018-03-25T00:33:10.329Z,-1.30
2018-03-25T00:35:36.788Z,-1.30
2018-03-25T00:38:03.243Z,-1.30
2018-03-25T00:40:29.729Z,-1.30
2018-03-25T00:42:56.199Z,-1.40
2018-03-25T00:45:22.625Z,-1.40
2018-03-25T00:47:49.051Z,-1.40
2018-03-25T00:50:15.518Z,-1.40
2018-03-25T00:52:41.974Z,-1.40
2018-03-25T00:55:09.166Z,-1.40
2018-03-25T00:57:35.626Z,-1.50
2018-03-25T01:00:02.119Z,-1.50
2018-03-25T01:02:28.545Z,-1.50
2018-03-25T01:04:55.763Z,-1.50
2018-03-25T01:07:22.345Z,-1.50
2018-03-25T01:09:48.883Z,-1.50
2018-03-25T01:12:15.463Z,-1.50
2018-03-25T01:14:42.009Z,-1.50
2018-03-25T01:17:08.598Z,-1.60
2018-03-25T01:19:35.173Z,-1.60
2018-03-25T01:22:01.771Z,-1.60
2018-03-25T01:24:28.360Z,-1.60
2018-03-25T01:26:54.934Z,-1.60
2018-03-25T01:29:21.466Z,-1.60
2018-03-25T01:31:48.075Z,-1.60
2018-03-25T01:34:14.604Z,-1.60
2018-03-25T01:36:41.249Z,-1.60
2018-03-25T01:39:07.826Z,-1.60
2018-03-25T01:41:34.410Z,-1.60
2018-03-25T01:44:01.747Z,-1.70
2018-03-25T01:46:28.391Z,-1.70
2018-03-25T01:48:54.920Z,-1.70
2018-03-25T01:51:21.506Z,-1.70
2018-03-25T01:53:48.915Z,-1.80
2018-03-25T01:56:15.447Z,-1.80
2018-03-25T01:58:42.031Z,-1.70
2018-03-25T02:01:08.664Z,-1.70
2018-03-25T02:03:35.281Z,-1.80
2018-03-25T02:06:01.855Z,-1.80
2018-03-25T02:08:29.217Z,-1.70
2018-03-25T02:10:55.872Z,-1.80
2018-03-25T02:13:22.434Z,-1.70
2018-03-25T02:15:49.071Z,-1.70
2018-03-25T02:18:15.664Z,-1.70
2018-03-25T02:20:42.963Z,-1.70
2018-03-25T02:23:09.512Z,-1.70
2018-03-25T02:25:36.046Z,-1.70
2018-03-25T02:28:02.717Z,-1.70
2018-03-25T02:30:30.768Z,-1.70
2018-03-25T02:32:57.393Z,-1.80
2018-03-25T02:35:24.107Z,-1.80
2018-03-25T02:37:50.659Z,-1.80
2018-03-25T02:40:17.272Z,-1.80
2018-03-25T02:42:48.515Z,-1.80
2018-03-25T02:45:15.055Z,-1.80
2018-03-25T02:47:41.660Z,-1.80
2018-03-25T02:50:08.964Z,-1.80
2018-03-25T02:52:35.657Z,-1.90
2018-03-25T02:55:02.283Z,-1.90
2018-03-25T02:57:28.820Z,-1.90
2018-03-25T02:59:55.404Z,-1.90
2018-03-25T03:02:21.997Z,-1.90
2018-03-25T03:04:48.575Z,-1.90
2018-03-25T03:07:15.167Z,-1.90
2018-03-25T03:09:41.711Z,-1.90
2018-03-25T03:12:09.014Z,-2.00
2018-03-25T03:14:35.611Z,-2.00
2018-03-25T03:17:02.175Z,-2.00
2018-03-25T03:19:28.716Z,-2.00
2018-03-25T03:21:55.980Z,-2.00
2018-03-25T03:24:22.587Z,-2.00
2018-03-25T03:26:49.851Z,-2.10
2018-03-25T03:29:17.155Z,-2.10
2018-03-25T03:31:43.680Z,-2.10
2018-03-25T03:34:10.243Z,-2.10
2018-03-25T03:36:36.862Z,-2.10
2018-03-25T03:39:03.503Z,-2.10
2018-03-25T03:41:30.048Z,-2.10
2018-03-25T03:43:56.675Z,-2.10
2018-03-25T03:46:23.269Z,-2.20
2018-03-25T03:48:50.578Z,-2.10
2018-03-25T03:51:17.999Z,-2.20
2018-03-25T03:53:44.551Z,-2.20
2018-03-25T03:56:11.081Z,-2.20
2018-03-25T03:58:37.626Z,-2.20
2018-03-25T04:01:04.223Z,-2.30
2018-03-25T04:03:31.486Z,-2.30
2018-03-25T04:05:58.041Z,-2.30
2018-03-25T04:08:24.612Z,-2.30
2018-03-25T04:10:51.159Z,-2.40
2018-03-25T04:13:17.773Z,-2.40
2018-03-25T04:15:44.322Z,-2.40
2018-03-25T04:18:10.897Z,-2.40
2018-03-25T04:20:38.166Z,-2.40
2018-03-25T04:23:04.741Z,-2.50
2018-03-25T04:25:31.319Z,-2.40
2018-03-25T04:27:58.659Z,-2.50
2018-03-25T04:30:25.190Z,-2.50
2018-03-25T04:32:52.569Z,-2.50
2018-03-25T04:35:19.136Z,-2.50
2018-03-25T04:37:45.702Z,-2.50
2018-03-25T04:40:12.238Z,-2.50
2018-03-25T04:42:38.823Z,-2.50
2018-03-25T04:45:05.406Z,-2.60
2018-03-25T04:47:32.009Z,-2.60
2018-03-25T04:49:58.562Z,-2.60
2018-03-25T04:52:25.142Z,-2.60
2018-03-25T04:54:51.700Z,-2.60
2018-03-25T04:57:18.401Z,-2.60
2018-03-25T04:59:44.949Z,-2.60
2018-03-25T05:02:11.539Z,-2.60
2018-03-25T05:04:38.214Z,-2.60
2018-03-25T05:07:04.775Z,-2.60
2018-03-25T05:09:31.384Z,-2.60
2018-03-25T05:11:58.023Z,-2.70
2018-03-25T05:14:24.602Z,-2.70
2018-03-25T05:16:51.914Z,-2.80
2018-03-25T05:19:18.493Z,-2.70
2018-03-25T05:21:45.060Z,-2.80
2018-03-25T05:24:11.595Z,-2.80
2018-03-25T05:26:38.198Z,-2.80
2018-03-25T05:29:04.759Z,-2.80
2018-03-25T05:31:31.359Z,-2.70
2018-03-25T05:33:58.024Z,-2.70
2018-03-25T05:36:25.374Z,-2.60
2018-03-25T05:38:52.704Z,-2.60
2018-03-25T05:41:19.429Z,-2.60
2018-03-25T05:43:45.975Z,-2.60
2018-03-25T05:46:12.577Z,-2.50
2018-03-25T05:48:39.159Z,-2.50
2018-03-25T05:51:05.822Z,-2.40
2018-03-25T05:53:32.535Z,-2.40
2018-03-25T05:55:59.203Z,-2.40
2018-03-25T05:58:25.793Z,-2.30
2018-03-25T06:00:52.331Z,-2.30
2018-03-25T06:03:18.988Z,-2.20
2018-03-25T06:05:45.535Z,-2.20
2018-03-25T06:08:12.172Z,-2.10
2018-03-25T06:10:38.792Z,-2.10
2018-03-25T06:13:05.360Z,-2.00
2018-03-25T06:15:31.932Z,-1.90
2018-03-25T06:17:58.602Z,-1.90
2018-03-25T06:20:25.246Z,-1.80
2018-03-25T06:22:51.864Z,-1.80
2018-03-25T06:25:18.497Z,-1.70
2018-03-25T06:27:45.917Z,-1.50
2018-03-25T06:30:12.502Z,-1.50
2018-03-25T06:32:39.062Z,-1.50
2018-03-25T06:35:05.657Z,-1.40
2018-03-25T06:37:32.197Z,-1.30
2018-03-25T06:39:58.864Z,-1.20
2018-03-25T06:42:25.383Z,-1.10
2018-03-25T06:44:51.938Z,-0.90
2018-03-25T06:47:18.617Z,-0.80
2018-03-25T06:49:46.047Z,-0.10
2018-03-25T06:52:12.570Z,-0.10
2018-03-25T06:54:39.154Z,0.30
2018-03-25T06:57:05.746Z,0.70
2018-03-25T06:59:32.351Z,1.20
2018-03-25T07:01:59.610Z,2.10
2018-03-25T07:04:26.194Z,2.10
2018-03-25T07:06:52.741Z,2.50
2018-03-25T07:09:19.389Z,3.00
2018-03-25T07:11:47.716Z,3.90
2018-03-25T07:14:18.376Z,3.80
2018-03-25T07:16:45.700Z,5.00
2018-03-25T07:19:12.285Z,4.90
2018-03-25T07:21:38.823Z,5.50
2018-03-25T07:24:06.906Z,6.10
2018-03-25T07:26:33.423Z,6.50
2018-03-25T07:29:00.003Z,6.70
2018-03-25T07:31:26.560Z,7.00
2018-03-25T07:33:53.119Z,7.50
2018-03-25T07:36:19.799Z,8.00
2018-03-25T07:38:46.367Z,8.60
2018-03-25T07:41:12.915Z,9.10
2018-03-25T07:43:39.468Z,9.70
2018-03-25T07:46:06.018Z,10.00
2018-03-25T07:48:32.605Z,10.20
2018-03-25T07:50:59.174Z,10.40
2018-03-25T07:53:25.772Z,10.60
2018-03-25T07:55:53.053Z,10.80
2018-03-25T07:58:19.636Z,10.80
2018-03-25T08:00:46.251Z,10.60
2018-03-25T08:03:12.880Z,10.60
2018-03-25T08:05:39.531Z,10.70
2018-03-25T08:08:06.119Z,10.80
2018-03-25T08:10:32.736Z,10.80
2018-03-25T08:13:00.044Z,11.00
2018-03-25T08:15:26.748Z,11.00
2018-03-25T08:17:53.316Z,11.30
2018-03-25T08:20:19.980Z,12.00
2018-03-25T08:22:46.608Z,12.60
2018-03-25T08:25:13.218Z,13.20
2018-03-25T08:27:40.500Z,14.10
2018-03-25T08:30:07.144Z,14.10
2018-03-25T08:32:33.675Z,14.60
2018-03-25T08:35:00.316Z,15.10
2018-03-25T08:37:26.833Z,15.60
2018-03-25T08:39:53.504Z,16.00
2018-03-25T08:42:20.061Z,16.20
2018-03-25T08:44:46.705Z,15.90
2018-03-25T08:47:13.308Z,16.30
2018-03-25T08:49:39.884Z,16.80
2018-03-25T08:52:07.201Z,17.00
2018-03-25T08:54:33.841Z,17.00
2018-03-25T08:57:00.371Z,17.20
2018-03-25T08:59:27.050Z,17.40
2018-03-25T09:01:54.339Z,17.70
2018-03-25T09:04:20.938Z,17.80
2018-03-25T09:06:47.480Z,18.00
2018-03-25T09:09:14.052Z,18.20
2018-03-25T09:11:40.660Z,18.60
2018-03-25T09:14:07.247Z,19.20
2018-03-25T09:16:33.823Z,19.50
2018-03-25T09:19:00.403Z,19.80
2018-03-25T09:21:26.959Z,19.90
2018-03-25T09:23:53.647Z,20.00
2018-03-25T09:26:20.928Z,20.20
2018-03-25T09:28:48.471Z,20.80
2018-03-25T09:31:18.888Z,20.70
2018-03-25T09:33:45.534Z,21.20
2018-03-25T09:36:12.166Z,21.60
2018-03-25T09:38:38.758Z,22.00
2018-03-25T09:41:05.319Z,22.40
2018-03-25T09:43:31.892Z,22.60
2018-03-25T09:45:59.183Z,22.80
2018-03-25T09:48:25.811Z,22.80
2018-03-25T09:50:52.382Z,22.80
2018-03-25T09:53:19.035Z,22.40
2018-03-25T09:55:45.662Z,22.20
2018-03-25T09:58:12.328Z,22.20
2018-03-25T10:00:39.704Z,22.60
2018-03-25T10:03:12.418Z,22.60
2018-03-25T10:05:39.276Z,22.90
2018-03-25T10:08:05.835Z,22.70
2018-03-25T10:10:32.675Z,22.40
2018-03-25T10:12:59.259Z,22.50
2018-03-25T10:15:25.875Z,22.90
2018-03-25T10:17:53.215Z,22.50
2018-03-25T10:20:20.818Z,22.50
2018-03-25T10:22:47.422Z,22.00
2018-03-25T10:25:14.919Z,22.30
2018-03-25T10:27:41.492Z,22.80
2018-03-25T10:30:08.100Z,23.20
2018-03-25T10:32:34.655Z,23.30
2018-03-25T10:35:01.217Z,23.00
2018-03-25T10:37:27.774Z,23.10
2018-03-25T10:39:55.092Z,23.60
2018-03-25T10:42:21.775Z,23.60
2018-03-25T10:44:50.112Z,24.20
2018-03-25T10:47:16.889Z,24.20
2018-03-25T10:49:43.550Z,24.50
2018-03-25T10:52:10.264Z,24.60
2018-03-25T10:54:36.852Z,24.80
2018-03-25T10:57:03.513Z,25.00
2018-03-25T10:59:30.151Z,25.10
2018-03-25T11:01:56.687Z,25.10
2018-03-25T11:04:23.249Z,25.30
2018-03-25T11:06:49.893Z,25.30
2018-03-25T11:09:17.245Z,25.70
2018-03-25T11:11:44.791Z,25.60
2018-03-25T11:14:11.367Z,25.50
2018-03-25T11:16:37.950Z,25.70
2018-03-25T11:19:04.521Z,25.70
2018-03-25T11:21:31.137Z,25.80
2018-03-25T11:23:57.799Z,25.70
2018-03-25T11:26:24.408Z,25.10
2018-03-25T11:28:50.950Z,24.80
2018-03-25T11:31:18.363Z,25.00
2018-03-25T11:33:44.896Z,25.00
2018-03-25T11:36:11.511Z,25.30
2018-03-25T11:38:38.932Z,25.10
2018-03-25T11:41:05.707Z,25.10
2018-03-25T11:43:33.368Z,24.30
2018-03-25T11:46:00.509Z,23.50
2018-03-25T11:48:35.252Z,22.80
2018-03-25T11:51:02.879Z,21.70
2018-03-25T11:53:30.289Z,21.40
2018-03-25T11:55:59.287Z,21.20
2018-03-25T11:58:43.186Z,21.30
2018-03-25T12:01:14.146Z,21.30
2018-03-25T12:03:43.783Z,21.20
2018-03-25T12:06:23.094Z,20.90
2018-03-25T12:08:50.858Z,21.30
2018-03-25T12:11:17.671Z,22.00
2018-03-25T12:13:53.760Z,22.80
2018-03-25T12:16:21.514Z,23.50
2018-03-25T12:18:48.864Z,24.00
2018-03-25T12:21:20.660Z,24.00
2018-03-25T12:23:47.267Z,24.40
2018-03-25T12:26:26.991Z,24.50
2018-03-25T12:28:55.571Z,24.50
2018-03-25T12:31:22.963Z,24.70
2018-03-25T12:33:55.339Z,24.40
2018-03-25T12:36:34.102Z,24.40
2018-03-25T12:39:04.689Z,24.40
2018-03-25T12:41:49.099Z,25.20
2018-03-25T12:44:15.870Z,25.10
2018-03-25T12:46:42.417Z,25.30
2018-03-25T12:49:33.427Z,25.50
2018-03-25T12:51:59.975Z,25.60
2018-03-25T12:54:26.567Z,25.90
2018-03-25T12:56:53.103Z,25.90
2018-03-25T12:59:19.791Z,25.60
2018-03-25T13:01:46.352Z,25.10
2018-03-25T13:04:27.823Z,23.20
2018-03-25T13:06:55.132Z,22.10
2018-03-25T13:09:21.875Z,22.00
2018-03-25T13:12:04.784Z,21.20
2018-03-25T13:14:35.570Z,20.90
2018-03-25T13:17:02.932Z,21.10
2018-03-25T13:19:29.552Z,21.10
2018-03-25T13:21:56.908Z,21.20
2018-03-25T13:24:30.365Z,20.90
2018-03-25T13:26:57.123Z,20.90
2018-03-25T13:29:23.722Z,20.20
2018-03-25T13:31:50.472Z,20.20
2018-03-25T13:34:18.006Z,20.50
2018-03-25T13:37:08.363Z,20.60
2018-03-25T13:39:35.720Z,21.20
2018-03-25T13:42:02.348Z,21.20
2018-03-25T13:47:31.864Z,22.10
2018-03-25T13:50:03.424Z,22.70
2018-03-25T13:55:24.980Z,22.60
2018-03-25T13:57:51.611Z,22.10
2018-03-25T14:00:18.293Z,21.70
2018-03-25T14:02:44.934Z,21.40
2018-03-25T14:05:12.394Z,20.30
2018-03-25T14:07:40.192Z,20.10
2018-03-25T14:15:59.386Z,19.80
2018-03-25T14:18:26.171Z,19.60
2018-03-25T14:20:52.734Z,19.70
2018-03-25T14:23:19.471Z,19.80
2018-03-25T14:25:46.028Z,19.80
2018-03-25T14:28:13.319Z,19.70
2018-03-25T14:30:40.016Z,19.80
2018-03-25T14:36:09.750Z,19.50
2018-03-25T14:38:36.342Z,19.60
2018-03-25T14:41:02.924Z,19.70
2018-03-25T14:43:48.700Z,19.70
2018-03-25T14:46:15.262Z,19.80
2018-03-25T14:48:42.553Z,19.90
2018-03-25T14:51:09.204Z,19.80
2018-03-25T14:53:35.759Z,19.60
2018-03-25T14:56:11.555Z,19.20
2018-03-25T14:58:38.120Z,18.80
2018-03-25T15:01:16.651Z,18.50
2018-03-25T15:03:43.212Z,18.20
2018-03-25T15:06:09.800Z,17.90
2018-03-25T15:08:36.360Z,17.60
2018-03-25T15:11:03.040Z,17.40
2018-03-25T15:13:37.647Z,17.20
2018-03-25T15:16:05.021Z,17.20
2018-03-25T15:18:32.381Z,17.20
2018-03-25T15:20:58.962Z,17.20
2018-03-25T15:23:30.469Z,17.20
2018-03-25T15:25:57.012Z,17.20
2018-03-25T15:28:24.320Z,16.90
2018-03-25T15:33:45.091Z,16.70
2018-03-25T15:36:11.672Z,16.70
2018-03-25T15:38:38.216Z,16.50
2018-03-25T15:41:12.804Z,16.30
2018-03-25T15:43:40.085Z,15.80
2018-03-25T15:46:06.778Z,15.80
2018-03-25T15:48:33.423Z,15.70
2018-03-25T15:51:00.818Z,15.70
2018-03-25T15:53:27.392Z,15.60
2018-03-25T15:56:14.284Z,15.60
2018-03-25T15:58:40.927Z,15.60
2018-03-25T16:01:07.497Z,15.40
2018-03-25T16:03:34.860Z,15.00
2018-03-25T16:06:17.640Z,14.90
2018-03-25T16:08:45.028Z,14.80
2018-03-25T16:11:28.947Z,14.80
2018-03-25T16:13:55.534Z,14.70
2018-03-25T16:16:27.762Z,14.50
2018-03-25T16:18:58.318Z,14.50
2018-03-25T16:21:24.866Z,14.40
2018-03-25T16:23:51.419Z,14.30
2018-03-25T16:26:24.183Z,14.10
2018-03-25T16:28:50.879Z,13.90
2018-03-25T16:31:19.639Z,13.80
2018-03-25T16:33:47.263Z,13.70
2018-03-25T16:36:13.867Z,13.40
2018-03-25T16:38:41.493Z,13.20
2018-03-25T16:41:28.375Z,13.00
2018-03-25T16:43:55.716Z,12.60
2018-03-25T16:46:22.424Z,12.50
2018-03-25T16:48:58.051Z,12.40
2018-03-25T16:51:28.641Z,12.20
2018-03-25T16:59:47.916Z,11.60
2018-03-25T17:02:14.482Z,11.40
2018-03-25T17:04:42.579Z,11.20
2018-03-25T17:07:10.001Z,11.20
2018-03-25T17:09:36.564Z,11.10
2018-03-25T17:12:07.232Z,11.10
2018-03-25T17:14:33.840Z,11.00
2018-03-25T17:17:22.767Z,10.80
2018-03-25T17:19:50.099Z,10.70
2018-03-25T17:22:28.806Z,10.70
2018-03-25T17:24:57.466Z,10.60
2018-03-25T17:27:40.356Z,10.60
2018-03-25T17:30:28.688Z,10.50
2018-03-25T17:32:55.383Z,10.30
2018-03-25T17:35:28.656Z,10.10
2018-03-25T17:38:18.965Z,10.00
2018-03-25T17:43:40.251Z,9.90
2018-03-25T17:46:06.896Z,9.80
2018-03-25T17:51:28.248Z,9.60
2018-03-25T17:53:54.878Z,9.50
2018-03-25T17:56:31.623Z,9.40
2018-03-25T17:58:58.184Z,9.30
2018-03-25T18:01:43.048Z,9.20
2018-03-25T18:04:26.079Z,9.10
2018-03-25T18:06:52.712Z,9.00
2018-03-25T18:09:19.355Z,8.90
2018-03-25T18:11:50.911Z,8.80
2018-03-25T18:14:17.543Z,8.70
2018-03-25T18:16:44.112Z,8.60
2018-03-25T18:19:10.660Z,8.50
2018-03-25T18:21:38.122Z,8.30
2018-03-25T18:24:05.427Z,8.20
2018-03-25T18:26:39.220Z,8.20
2018-03-25T18:29:05.820Z,8.10
2018-03-25T18:31:33.115Z,7.80
2018-03-25T18:33:59.674Z,7.80
2018-03-25T18:39:21.260Z,7.60
2018-03-25T18:42:11.224Z,7.50
2018-03-25T18:47:36.095Z,7.30
2018-03-25T18:50:02.728Z,7.30
2018-03-25T18:52:30.114Z,7.10
2018-03-25T18:54:56.786Z,7.10
2018-03-25T18:57:23.638Z,7.10
2018-03-25T19:00:04.348Z,6.90
2018-03-25T19:02:30.938Z,6.80
2018-03-25T19:05:07.512Z,6.80
2018-03-25T19:07:34.126Z,6.70
2018-03-25T19:10:00.696Z,6.70
2018-03-25T19:12:28.151Z,6.60
2018-03-25T19:14:58.680Z,6.60
2018-03-25T19:17:26.019Z,6.60
2018-03-25T19:19:52.609Z,6.60
2018-03-25T19:22:19.200Z,6.60
2018-03-25T19:24:46.633Z,6.50
2018-03-25T19:27:16.195Z,6.50
2018-03-25T19:29:42.772Z,6.40
2018-03-25T19:32:09.366Z,6.40
2018-03-25T19:34:35.927Z,6.30
2018-03-25T19:37:02.546Z,6.20
2018-03-25T19:39:33.774Z,6.10
2018-03-25T19:42:00.416Z,6.00
2018-03-25T19:44:26.988Z,6.00
2018-03-25T19:46:53.531Z,5.90
2018-03-25T19:49:24.084Z,5.80
2018-03-25T19:51:50.670Z,5.80
2018-03-25T19:54:18.018Z,5.60
2018-03-25T19:56:44.543Z,5.60
2018-03-25T19:59:11.125Z,5.50
2018-03-25T20:01:37.679Z,5.40
2018-03-25T20:04:04.248Z,5.30
2018-03-25T20:06:31.579Z,5.20
2018-03-25T20:08:58.279Z,5.10
2018-03-25T20:11:25.563Z,5.00
2018-03-25T20:13:52.103Z,5.00
2018-03-25T20:16:18.706Z,4.90
2018-03-25T20:18:45.247Z,4.80
2018-03-25T20:21:11.781Z,4.70
2018-03-25T20:23:38.368Z,4.60
2018-03-25T20:26:04.939Z,4.60
2018-03-25T20:28:32.263Z,4.50
2018-03-25T20:30:58.855Z,4.50
2018-03-25T20:33:25.426Z,4.40
2018-03-25T20:35:51.979Z,4.40
2018-03-25T20:38:18.616Z,4.40
2018-03-25T20:40:45.214Z,4.30
2018-03-25T20:43:11.754Z,4.20
2018-03-25T20:45:38.315Z,4.10
2018-03-25T20:48:04.884Z,4.00
2018-03-25T20:50:31.474Z,3.90
2018-03-25T20:52:58.063Z,3.80
2018-03-25T20:55:24.611Z,3.70
2018-03-25T20:57:51.228Z,3.60
2018-03-25T21:00:17.957Z,3.50
2018-03-25T21:02:45.637Z,3.50
2018-03-25T21:05:12.219Z,3.40
2018-03-25T21:07:38.822Z,3.40
2018-03-25T21:10:05.458Z,3.40
2018-03-25T21:12:32.771Z,3.30
2018-03-25T21:15:03.266Z,3.30
2018-03-25T21:17:29.847Z,3.30
2018-03-25T21:19:56.475Z,3.20
2018-03-25T21:22:23.038Z,3.20
2018-03-25T21:24:49.574Z,3.10
2018-03-25T21:27:16.178Z,3.10
2018-03-25T21:29:42.730Z,3.10
2018-03-25T21:32:09.279Z,3.00
2018-03-25T21:34:36.607Z,2.80
2018-03-25T21:37:03.178Z,2.80
2018-03-25T21:39:29.763Z,2.80
2018-03-25T21:41:56.317Z,2.70
2018-03-25T21:44:22.963Z,2.70
2018-03-25T21:46:49.649Z,2.70
2018-03-25T21:49:16.191Z,2.60
2018-03-25T21:51:43.647Z,2.50
2018-03-25T21:54:10.198Z,2.50
2018-03-25T21:56:37.516Z,2.50
2018-03-25T21:59:05.569Z,2.40
2018-03-25T22:01:32.129Z,2.40
2018-03-25T22:03:58.743Z,2.40
2018-03-25T22:06:25.307Z,2.40
2018-03-25T22:08:51.884Z,2.30
2018-03-25T22:11:18.431Z,2.30
2018-03-25T22:13:45.062Z,2.30
2018-03-25T22:16:11.665Z,2.30
2018-03-25T22:18:50.335Z,2.30
2018-03-25T22:21:16.903Z,2.30
2018-03-25T22:23:44.959Z,2.30
2018-03-25T22:26:11.699Z,2.30
2018-03-25T22:28:38.268Z,2.30
2018-03-25T22:31:04.835Z,2.20
2018-03-25T22:33:32.098Z,2.10
2018-03-25T22:35:58.688Z,2.10
2018-03-25T22:38:25.240Z,2.00
2018-03-25T22:40:53.314Z,1.90
2018-03-25T22:43:19.907Z,1.90
2018-03-25T22:45:46.469Z,1.90
2018-03-25T22:48:13.021Z,1.90
2018-03-25T22:50:39.571Z,1.80
2018-03-25T22:53:07.020Z,1.80
2018-03-25T22:55:33.658Z,1.70
2018-03-25T22:58:00.203Z,1.70
2018-03-25T23:00:27.621Z,1.60
2018-03-25T23:02:54.179Z,1.60
2018-03-25T23:05:20.791Z,1.60
2018-03-25T23:07:47.319Z,1.60
2018-03-25T23:10:13.906Z,1.60
2018-03-25T23:12:40.447Z,1.50
2018-03-25T23:15:07.764Z,1.40
2018-03-25T23:17:34.343Z,1.30
2018-03-25T23:20:04.919Z,1.30
2018-03-25T23:22:31.476Z,1.30
2018-03-25T23:24:58.028Z,1.20
2018-03-25T23:27:26.112Z,1.10
2018-03-25T23:29:53.388Z,1.10
2018-03-25T23:32:19.959Z,1.00
2018-03-25T23:34:46.527Z,1.00
2018-03-25T23:37:13.137Z,0.90
2018-03-25T23:39:39.705Z,0.90
2018-03-25T23:42:06.263Z,0.80
2018-03-25T23:44:33.567Z,0.70
2018-03-25T23:47:00.111Z,0.70
2018-03-25T23:49:26.661Z,0.70
2018-03-25T23:54:52.578Z,0.50
2018-03-25T23:57:19.146Z,0.50
2018-03-25T23:59:45.666Z,0.50
